createdAt,value
2018-04-22T00:00:58.596Z,44.58
2018-04-22T00:01:58.561Z,44.45
2018-04-22T00:02:58.682Z,44.42
2018-04-22T00:03:58.595Z,44.5
2018-04-22T00:04:58.572Z,44.46
2018-04-22T00:05:58.540Z,44.51
2018-04-22T00:06:58.646Z,44.53
2018-04-22T00:07:58.592Z,44.46
2018-04-22T00:08:58.666Z,44.52
2018-04-22T00:09:58.512Z,44.42
2018-04-22T00:10:58.619Z,44.4
2018-04-22T00:11:58.684Z,44.42
2018-04-22T00:12:58.524Z,44.47
2018-04-22T00:13:58.604Z,44.46
2018-04-22T00:14:58.542Z,44.44
2018-04-22T00:15:58.807Z,44.44
2018-04-22T00:16:58.584Z,44.49
2018-04-22T00:17:58.562Z,44.4
2018-04-22T00:18:58.774Z,44.52
2018-04-22T00:19:58.506Z,44.45
2018-04-22T00:20:58.614Z,44.47
2018-04-22T00:21:58.722Z,44.56
2018-04-22T00:22:58.787Z,44.47
2018-04-22T00:23:58.535Z,44.47
2018-04-22T00:24:58.690Z,44.54
2018-04-22T00:25:58.657Z,44.5
2018-04-22T00:26:58.772Z,44.48
2018-04-22T00:27:58.557Z,44.46
2018-04-22T00:28:58.511Z,44.48
2018-04-22T00:29:58.672Z,44.41
2018-04-22T00:30:58.744Z,44.55
2018-04-22T00:31:58.691Z,44.4
2018-04-22T00:32:58.538Z,44.5
2018-04-22T00:33:58.612Z,44.53
2018-04-22T00:34:58.600Z,44.53
2018-04-22T00:35:58.713Z,44.52
2018-04-22T00:36:58.802Z,44.5
2018-04-22T00:37:58.500Z,44.44
2018-04-22T00:38:58.514Z,44.46
2018-04-22T00:39:58.665Z,44.49
2018-04-22T00:40:58.680Z,44.39
2018-04-22T00:41:58.697Z,44.44
2018-04-22T00:42:58.682Z,44.52
2018-04-22T00:43:58.520Z,44.4
2018-04-22T00:44:58.571Z,44.56
2018-04-22T00:45:58.603Z,44.47
2018-04-22T00:46:58.508Z,44.43
2018-04-22T00:47:58.622Z,44.48
2018-04-22T00:48:58.763Z,44.48
2018-04-22T00:49:58.701Z,44.39
2018-04-22T00:50:58.640Z,44.49
2018-04-22T00:51:58.677Z,44.49
2018-04-22T00:52:58.661Z,44.48
2018-04-22T00:53:58.499Z,44.45
2018-04-22T00:54:58.520Z,44.53
2018-04-22T00:55:58.600Z,44.45
2018-04-22T00:56:58.777Z,44.54
2018-04-22T00:57:58.757Z,44.54
2018-04-22T00:58:58.691Z,44.47
2018-04-22T00:59:58.487Z,44.45
2018-04-22T01:00:58.633Z,44.52
2018-04-22T01:01:58.601Z,44.44
2018-04-22T01:02:58.611Z,44.44
2018-04-22T01:03:58.733Z,44.5
2018-04-22T01:04:58.598Z,44.47
2018-04-22T01:05:58.438Z,44.48
2018-04-22T01:06:58.664Z,44.5
2018-04-22T01:07:58.527Z,44.47
2018-04-22T01:08:58.599Z,44.51
2018-04-22T01:09:58.662Z,44.5
2018-04-22T01:10:58.687Z,44.43
2018-04-22T01:11:58.691Z,44.47
2018-04-22T01:12:58.681Z,44.53
2018-04-22T01:13:58.594Z,44.43
2018-04-22T01:14:58.609Z,44.52
2018-04-22T01:15:58.709Z,44.49
2018-04-22T01:16:58.789Z,44.45
2018-04-22T01:17:58.668Z,44.53
2018-04-22T01:18:58.668Z,44.52
2018-04-22T01:19:58.713Z,44.46
2018-04-22T01:20:58.762Z,44.55
2018-04-22T01:21:58.735Z,44.49
2018-04-22T01:22:58.690Z,44.47
2018-04-22T01:23:58.637Z,44.52
2018-04-22T01:24:58.470Z,44.55
2018-04-22T01:25:58.778Z,44.42
2018-04-22T01:26:58.726Z,44.51
2018-04-22T01:27:58.545Z,44.56
2018-04-22T01:28:58.625Z,44.49
2018-04-22T01:29:58.875Z,44.46
2018-04-22T01:30:58.484Z,44.59
2018-04-22T01:31:58.624Z,44.49
2018-04-22T01:32:58.973Z,44.51
2018-04-22T01:33:58.759Z,44.56
2018-04-22T01:34:58.784Z,44.52
2018-04-22T01:35:58.564Z,44.56
2018-04-22T01:36:58.761Z,44.52
2018-04-22T01:37:58.600Z,44.56
2018-04-22T01:38:58.671Z,44.52
2018-04-22T01:39:58.571Z,44.52
2018-04-22T01:40:58.672Z,44.5
2018-04-22T01:41:58.838Z,44.5
2018-04-22T01:42:58.839Z,44.58
2018-04-22T01:43:58.702Z,44.46
2018-04-22T01:44:58.602Z,44.58
2018-04-22T01:45:58.748Z,44.5
2018-04-22T01:46:58.731Z,44.47
2018-04-22T01:47:58.586Z,44.51
2018-04-22T01:48:58.562Z,44.57
2018-04-22T01:49:58.455Z,44.54
2018-04-22T01:50:58.664Z,44.52
2018-04-22T01:51:58.709Z,44.57
2018-04-22T01:52:58.665Z,44.48
2018-04-22T01:53:58.533Z,44.53
2018-04-22T01:54:58.566Z,44.54
2018-04-22T01:55:58.894Z,44.47
2018-04-22T01:56:58.715Z,44.49
2018-04-22T01:57:58.501Z,44.56
2018-04-22T01:58:58.570Z,44.46
2018-04-22T01:59:58.697Z,44.62
2018-04-22T02:00:58.761Z,44.54
2018-04-22T02:01:58.689Z,44.51
2018-04-22T02:02:58.695Z,44.47
2018-04-22T02:03:58.644Z,44.5
2018-04-22T02:04:58.672Z,44.47
2018-04-22T02:05:58.461Z,44.48
2018-04-22T02:06:58.680Z,44.5
2018-04-22T02:07:58.666Z,44.53
2018-04-22T02:08:58.455Z,44.46
2018-04-22T02:09:58.681Z,44.6
2018-04-22T02:10:58.536Z,44.49
2018-04-22T02:11:58.763Z,44.49
2018-04-22T02:12:58.494Z,44.54
2018-04-22T02:13:58.578Z,44.49
2018-04-22T02:14:58.495Z,44.5
2018-04-22T02:15:58.630Z,44.57
2018-04-22T02:16:58.785Z,44.47
2018-04-22T02:17:58.977Z,44.49
2018-04-22T02:18:58.631Z,44.58
2018-04-22T02:19:58.480Z,44.44
2018-04-22T02:20:58.640Z,44.54
2018-04-22T02:21:58.812Z,44.52
2018-04-22T02:22:58.740Z,44.46
2018-04-22T02:23:58.585Z,44.56
2018-04-22T02:24:58.647Z,44.53
2018-04-22T02:25:58.617Z,44.4
2018-04-22T02:26:58.527Z,44.5
2018-04-22T02:27:58.500Z,44.54
2018-04-22T02:28:58.684Z,44.49
2018-04-22T02:29:58.664Z,44.46
2018-04-22T02:30:58.730Z,44.54
2018-04-22T02:31:58.652Z,44.46
2018-04-22T02:32:58.519Z,44.48
2018-04-22T02:33:58.678Z,44.55
2018-04-22T02:34:58.661Z,44.46
2018-04-22T02:35:58.712Z,44.46
2018-04-22T02:36:58.496Z,44.59
2018-04-22T02:37:58.684Z,44.44
2018-04-22T02:38:58.712Z,44.49
2018-04-22T02:39:58.730Z,44.5
2018-04-22T02:40:58.515Z,44.54
2018-04-22T02:41:58.644Z,44.54
2018-04-22T02:42:58.785Z,44.49
2018-04-22T02:43:58.510Z,44.44
2018-04-22T02:44:58.571Z,44.49
2018-04-22T02:45:58.661Z,44.52
2018-04-22T02:46:58.336Z,44.44
2018-04-22T02:47:58.506Z,44.49
2018-04-22T02:48:58.596Z,44.46
2018-04-22T02:49:58.753Z,44.43
2018-04-22T02:50:58.600Z,44.48
2018-04-22T02:51:58.567Z,44.55
2018-04-22T02:52:58.491Z,44.41
2018-04-22T02:53:58.508Z,44.51
2018-04-22T02:54:58.697Z,44.5
2018-04-22T02:55:58.681Z,44.42
2018-04-22T02:56:58.550Z,44.5
2018-04-22T02:57:58.681Z,44.56
2018-04-22T02:58:58.656Z,44.49
2018-04-22T02:59:58.558Z,44.52
2018-04-22T03:00:58.679Z,44.59
2018-04-22T03:01:58.518Z,44.48
2018-04-22T03:02:58.691Z,44.51
2018-04-22T03:03:58.437Z,44.51
2018-04-22T03:04:58.547Z,44.45
2018-04-22T03:05:58.430Z,44.56
2018-04-22T03:06:58.584Z,44.52
2018-04-22T03:07:59.005Z,44.52
2018-04-22T03:08:58.588Z,44.5
2018-04-22T03:09:58.651Z,44.61
2018-04-22T03:10:58.482Z,44.45
2018-04-22T03:11:58.582Z,44.5
2018-04-22T03:12:58.654Z,44.54
2018-04-22T03:13:58.510Z,44.5
2018-04-22T03:14:58.431Z,44.49
2018-04-22T03:15:58.615Z,44.51
2018-04-22T03:16:58.633Z,44.46
2018-04-22T03:17:58.688Z,44.54
2018-04-22T03:18:58.443Z,44.58
2018-04-22T03:19:58.448Z,44.45
2018-04-22T03:20:58.501Z,44.51
2018-04-22T03:21:58.497Z,44.51
2018-04-22T03:22:58.531Z,44.51
2018-04-22T03:23:58.660Z,44.49
2018-04-22T03:24:58.470Z,44.54
2018-04-22T03:25:58.614Z,44.44
2018-04-22T03:26:58.702Z,44.47
2018-04-22T03:27:58.665Z,44.56
2018-04-22T03:28:58.621Z,44.47
2018-04-22T03:29:58.447Z,44.52
2018-04-22T03:30:58.429Z,44.57
2018-04-22T03:31:58.643Z,44.53
2018-04-22T03:32:58.665Z,44.5
2018-04-22T03:33:58.557Z,44.56
2018-04-22T03:34:58.621Z,44.47
2018-04-22T03:35:58.689Z,44.52
2018-04-22T03:36:58.454Z,44.57
2018-04-22T03:37:58.710Z,44.47
2018-04-22T03:38:58.638Z,44.54
2018-04-22T03:39:58.516Z,44.62
2018-04-22T03:40:58.595Z,44.48
2018-04-22T03:41:58.711Z,44.48
2018-04-22T03:42:58.614Z,44.55
2018-04-22T03:43:58.448Z,44.41
2018-04-22T03:44:58.582Z,44.51
2018-04-22T03:45:58.631Z,44.54
2018-04-22T03:46:58.661Z,44.47
2018-04-22T03:47:58.657Z,44.46
2018-04-22T03:48:58.458Z,44.56
2018-04-22T03:49:58.411Z,44.48
2018-04-22T03:50:58.679Z,44.57
2018-04-22T03:51:58.658Z,44.56
2018-04-22T03:52:58.682Z,44.47
2018-04-22T03:53:58.591Z,44.53
2018-04-22T03:54:58.650Z,44.52
2018-04-22T03:55:58.531Z,44.48
2018-04-22T03:56:58.573Z,44.44
2018-04-22T03:57:58.612Z,44.54
2018-04-22T03:58:58.516Z,44.49
2018-04-22T03:59:58.449Z,44.52
2018-04-22T04:00:58.481Z,44.59
2018-04-22T04:01:58.569Z,44.49
2018-04-22T04:02:58.479Z,44.49
2018-04-22T04:03:58.517Z,44.52
2018-04-22T04:04:58.539Z,44.48
2018-04-22T04:05:58.623Z,44.51
2018-04-22T04:06:58.421Z,44.48
2018-04-22T04:07:58.669Z,44.44
2018-04-22T04:08:58.602Z,44.55
2018-04-22T04:09:58.780Z,44.57
2018-04-22T04:10:58.521Z,44.47
2018-04-22T04:11:58.495Z,44.48
2018-04-22T04:12:58.587Z,44.52
2018-04-22T04:13:58.450Z,44.49
2018-04-22T04:14:58.255Z,44.46
2018-04-22T04:15:58.726Z,44.53
2018-04-22T04:16:58.619Z,44.48
2018-04-22T04:17:58.613Z,44.49
2018-04-22T04:18:58.530Z,44.56
2018-04-22T04:19:58.424Z,44.43
2018-04-22T04:20:58.549Z,44.48
2018-04-22T04:21:58.637Z,44.53
2018-04-22T04:22:58.579Z,44.49
2018-04-22T04:23:58.741Z,44.5
2018-04-22T04:24:58.521Z,44.55
2018-04-22T04:25:58.514Z,44.55
2018-04-22T04:26:58.556Z,44.48
2018-04-22T04:27:58.395Z,44.53
2018-04-22T04:28:58.540Z,44.47
2018-04-22T04:29:58.577Z,44.41
2018-04-22T04:30:58.717Z,44.55
2018-04-22T04:31:58.610Z,44.45
2018-04-22T04:32:58.592Z,44.47
2018-04-22T04:33:58.489Z,44.53
2018-04-22T04:34:58.510Z,44.48
2018-04-22T04:35:58.758Z,44.47
2018-04-22T04:36:58.493Z,44.53
2018-04-22T04:37:58.643Z,44.54
2018-04-22T04:38:58.412Z,44.5
2018-04-22T04:39:58.685Z,44.49
2018-04-22T04:40:58.664Z,44.5
2018-04-22T04:41:58.678Z,44.46
2018-04-22T04:42:58.569Z,44.58
2018-04-22T04:43:58.519Z,44.39
2018-04-22T04:44:58.434Z,44.42
2018-04-22T04:45:58.455Z,44.57
2018-04-22T04:46:58.455Z,44.45
2018-04-22T04:47:58.687Z,44.47
2018-04-22T04:48:58.682Z,44.52
2018-04-22T04:49:58.659Z,44.42
2018-04-22T04:50:58.490Z,44.49
2018-04-22T04:51:58.602Z,44.5
2018-04-22T04:52:58.721Z,44.44
2018-04-22T04:53:58.693Z,44.48
2018-04-22T04:54:58.767Z,44.48
2018-04-22T04:55:58.448Z,44.47
2018-04-22T04:56:58.547Z,44.47
2018-04-22T04:57:58.559Z,44.57
2018-04-22T04:58:58.496Z,44.47
2018-04-22T04:59:58.596Z,44.5
2018-04-22T05:00:58.608Z,44.54
2018-04-22T05:01:58.495Z,44.51
2018-04-22T05:02:58.520Z,44.44
2018-04-22T05:03:58.481Z,44.51
2018-04-22T05:04:58.745Z,44.44
2018-04-22T05:05:58.435Z,44.44
2018-04-22T05:06:58.607Z,44.54
2018-04-22T05:07:58.530Z,44.48
2018-04-22T05:08:58.724Z,44.42
2018-04-22T05:09:58.425Z,44.57
2018-04-22T05:10:58.614Z,44.48
2018-04-22T05:11:58.618Z,44.49
2018-04-22T05:12:58.585Z,44.52
2018-04-22T05:13:58.451Z,44.5
2018-04-22T05:14:58.584Z,44.44
2018-04-22T05:15:58.745Z,44.49
2018-04-22T05:16:58.633Z,44.45
2018-04-22T05:17:58.411Z,44.6
2018-04-22T05:18:58.582Z,44.5
2018-04-22T05:19:58.602Z,44.49
2018-04-22T05:20:58.595Z,44.54
2018-04-22T05:21:58.473Z,44.51
2018-04-22T05:22:58.419Z,44.45
2018-04-22T05:23:58.517Z,44.45
2018-04-22T05:24:58.581Z,44.52
2018-04-22T05:25:58.470Z,44.5
2018-04-22T05:26:58.504Z,44.46
2018-04-22T05:27:58.428Z,44.53
2018-04-22T05:28:58.571Z,44.48
2018-04-22T05:29:58.457Z,44.48
2018-04-22T05:30:58.578Z,44.57
2018-04-22T05:31:58.510Z,44.46
2018-04-22T05:32:58.545Z,44.42
2018-04-22T05:33:58.408Z,44.48
2018-04-22T05:34:58.441Z,44.42
2018-04-22T05:35:58.416Z,44.44
2018-04-22T05:36:58.519Z,44.52
2018-04-22T05:37:58.494Z,44.45
2018-04-22T05:38:58.607Z,44.44
2018-04-22T05:39:58.469Z,44.54
2018-04-22T05:40:58.550Z,44.51
2018-04-22T05:41:58.490Z,44.45
2018-04-22T05:42:58.397Z,44.48
2018-04-22T05:43:58.642Z,44.46
2018-04-22T05:44:58.528Z,44.48
2018-04-22T05:45:58.660Z,44.48
2018-04-22T05:46:58.464Z,44.44
2018-04-22T05:47:58.513Z,44.44
2018-04-22T05:48:58.487Z,44.45
2018-04-22T05:49:58.419Z,44.38
2018-04-22T05:50:58.568Z,44.44
2018-04-22T05:51:58.622Z,44.5
2018-04-22T05:52:58.442Z,44.43
2018-04-22T05:53:58.591Z,44.41
2018-04-22T05:54:58.656Z,44.5
2018-04-22T05:55:58.590Z,44.39
2018-04-22T05:56:58.496Z,44.38
2018-04-22T05:57:58.494Z,44.49
2018-04-22T05:58:58.481Z,44.4
2018-04-22T05:59:58.537Z,44.44
2018-04-22T06:00:58.539Z,44.5
2018-04-22T06:01:58.252Z,44.43
2018-04-22T06:02:58.542Z,44.38
2018-04-22T06:03:58.610Z,44.5
2018-04-22T06:04:58.594Z,44.62
2018-04-22T06:05:58.428Z,44.53
2018-04-22T06:06:58.502Z,44.52
2018-04-22T06:07:58.741Z,44.45
2018-04-22T06:08:58.454Z,44.39
2018-04-22T06:09:58.610Z,44.49
2018-04-22T06:10:58.525Z,44.34
2018-04-22T06:11:58.468Z,44.4
2018-04-22T06:12:58.442Z,44.46
2018-04-22T06:13:58.567Z,44.42
2018-04-22T06:14:58.711Z,44.44
2018-04-22T06:15:58.680Z,44.51
2018-04-22T06:16:58.578Z,44.44
2018-04-22T06:17:58.672Z,44.44
2018-04-22T06:18:58.658Z,44.51
2018-04-22T06:19:58.426Z,44.4
2018-04-22T06:20:58.725Z,44.38
2018-04-22T06:21:58.705Z,44.45
2018-04-22T06:22:58.624Z,44.43
2018-04-22T06:23:58.614Z,44.39
2018-04-22T06:24:58.409Z,44.48
2018-04-22T06:25:58.523Z,44.43
2018-04-22T06:26:58.296Z,44.41
2018-04-22T06:27:58.466Z,44.45
2018-04-22T06:28:58.490Z,44.39
2018-04-22T06:29:58.509Z,44.45
2018-04-22T06:30:58.364Z,44.47
2018-04-22T06:31:58.652Z,44.44
2018-04-22T06:32:58.609Z,44.38
2018-04-22T06:33:58.549Z,44.48
2018-04-22T06:34:58.501Z,44.39
2018-04-22T06:35:58.414Z,44.42
2018-04-22T06:36:58.375Z,44.5
2018-04-22T06:37:58.571Z,44.42
2018-04-22T06:38:58.526Z,44.4
2018-04-22T06:39:58.372Z,44.44
2018-04-22T06:40:58.502Z,44.4
2018-04-22T06:41:58.571Z,44.41
2018-04-22T06:42:58.493Z,44.43
2018-04-22T06:43:58.343Z,44.4
2018-04-22T06:44:58.564Z,44.36
2018-04-22T06:45:58.578Z,44.51
2018-04-22T06:46:58.651Z,44.38
2018-04-22T06:47:58.535Z,44.33
2018-04-22T06:48:58.638Z,44.45
2018-04-22T06:49:58.370Z,44.47
2018-04-22T06:50:58.532Z,44.42
2018-04-22T06:51:58.379Z,44.47
2018-04-22T06:52:58.511Z,44.36
2018-04-22T06:53:58.440Z,44.41
2018-04-22T06:54:58.511Z,44.43
2018-04-22T06:55:58.604Z,44.4
2018-04-22T06:56:58.565Z,44.36
2018-04-22T06:57:58.656Z,44.74
2018-04-22T06:58:58.538Z,44.59
2018-04-22T06:59:58.432Z,44.64
2018-04-22T07:00:58.522Z,44.97
2018-04-22T07:01:58.520Z,44.81
2018-04-22T07:02:58.462Z,44.85
2018-04-22T07:03:58.581Z,44.81
2018-04-22T07:04:58.685Z,44.83
2018-04-22T07:05:58.522Z,44.8
2018-04-22T07:06:58.642Z,44.85
2018-04-22T07:07:58.371Z,44.85
2018-04-22T07:08:58.518Z,44.99
2018-04-22T07:09:58.625Z,44.92
2018-04-22T07:10:58.362Z,44.68
2018-04-22T07:11:58.498Z,44.7
2018-04-22T07:12:58.442Z,44.87
2018-04-22T07:13:58.502Z,44.83
2018-04-22T07:14:58.603Z,44.79
2018-04-22T07:15:58.408Z,44.81
2018-04-22T07:16:58.374Z,44.67
2018-04-22T07:17:58.535Z,44.73
2018-04-22T07:18:58.597Z,44.61
2018-04-22T07:19:58.378Z,44.57
2018-04-22T07:20:58.524Z,44.7
2018-04-22T07:21:58.460Z,44.66
2018-04-22T07:22:58.507Z,44.59
2018-04-22T07:23:58.801Z,44.66
2018-04-22T07:24:58.440Z,44.63
2018-04-22T07:25:58.445Z,44.59
2018-04-22T07:26:58.436Z,44.55
2018-04-22T07:27:58.447Z,44.7
2018-04-22T07:28:58.452Z,44.6
2018-04-22T07:29:58.536Z,44.68
2018-04-22T07:30:58.353Z,44.65
2018-04-22T07:31:58.490Z,44.61
2018-04-22T07:32:58.559Z,44.67
2018-04-22T07:33:58.573Z,44.73
2018-04-22T07:34:58.459Z,44.64
2018-04-22T07:35:58.498Z,44.66
2018-04-22T07:36:58.398Z,44.67
2018-04-22T07:37:58.624Z,44.61
2018-04-22T07:38:58.524Z,44.62
2018-04-22T07:39:58.415Z,44.64
2018-04-22T07:40:58.466Z,44.55
2018-04-22T07:41:58.333Z,44.62
2018-04-22T07:42:58.427Z,44.67
2018-04-22T07:43:58.529Z,44.51
2018-04-22T07:44:58.576Z,44.63
2018-04-22T07:45:58.390Z,44.68
2018-04-22T07:46:58.428Z,44.47
2018-04-22T07:47:58.620Z,44.52
2018-04-22T07:48:58.463Z,44.56
2018-04-22T07:49:58.638Z,44.54
2018-04-22T07:50:58.416Z,44.58
2018-04-22T07:51:58.486Z,44.53
2018-04-22T07:52:58.572Z,44.52
2018-04-22T07:53:58.466Z,44.54
2018-04-22T07:54:58.548Z,44.6
2018-04-22T07:55:58.364Z,44.52
2018-04-22T07:56:58.356Z,44.47
2018-04-22T07:57:58.479Z,44.57
2018-04-22T07:58:58.586Z,44.55
2018-04-22T07:59:58.401Z,44.53
2018-04-22T08:00:58.530Z,44.55
2018-04-22T08:01:58.611Z,44.5
2018-04-22T08:02:58.391Z,44.48
2018-04-22T08:03:58.379Z,44.57
2018-04-22T08:04:58.483Z,44.5
2018-04-22T08:05:58.496Z,44.47
2018-04-22T08:06:58.317Z,44.59
2018-04-22T08:07:58.556Z,44.46
2018-04-22T08:08:58.531Z,44.53
2018-04-22T08:09:58.592Z,44.52
2018-04-22T08:10:58.424Z,44.43
2018-04-22T08:11:58.485Z,44.49
2018-04-22T08:12:58.494Z,44.49
2018-04-22T08:13:58.653Z,44.43
2018-04-22T08:14:58.539Z,44.48
2018-04-22T08:15:58.533Z,44.56
2018-04-22T08:16:58.630Z,44.5
2018-04-22T08:17:58.687Z,44.49
2018-04-22T08:18:58.519Z,44.5
2018-04-22T08:19:58.613Z,44.43
2018-04-22T08:20:58.643Z,44.46
2018-04-22T08:21:58.470Z,44.55
2018-04-22T08:22:58.440Z,44.41
2018-04-22T08:23:58.561Z,44.46
2018-04-22T08:24:58.564Z,44.52
2018-04-22T08:25:58.416Z,44.47
2018-04-22T08:26:58.525Z,44.47
2018-04-22T08:27:58.456Z,44.54
2018-04-22T08:28:58.343Z,44.41
2018-04-22T08:29:58.490Z,44.51
2018-04-22T08:30:58.430Z,44.51
2018-04-22T08:31:58.304Z,44.37
2018-04-22T08:32:58.584Z,44.51
2018-04-22T08:33:58.485Z,44.55
2018-04-22T08:34:58.518Z,44.46
2018-04-22T08:35:58.467Z,44.53
2018-04-22T08:36:58.456Z,44.52
2018-04-22T08:37:58.414Z,44.46
2018-04-22T08:38:58.458Z,44.47
2018-04-22T08:39:58.563Z,44.51
2018-04-22T08:40:58.373Z,44.35
2018-04-22T08:41:58.487Z,44.43
2018-04-22T08:42:58.394Z,44.46
2018-04-22T08:43:58.609Z,44.4
2018-04-22T08:44:58.598Z,44.45
2018-04-22T08:45:58.560Z,44.44
2018-04-22T08:46:58.495Z,44.41
2018-04-22T08:47:58.456Z,44.44
2018-04-22T08:48:58.843Z,44.45
2018-04-22T08:49:58.392Z,44.36
2018-04-22T08:50:58.525Z,44.42
2018-04-22T08:51:58.607Z,44.51
2018-04-22T08:52:58.408Z,44.39
2018-04-22T08:53:58.631Z,44.46
2018-04-22T08:54:58.358Z,44.46
2018-04-22T08:55:58.493Z,44.36
2018-04-22T08:56:58.314Z,44.44
2018-04-22T08:57:58.378Z,44.39
2018-04-22T08:58:58.849Z,44.43
2018-04-22T08:59:58.521Z,44.47
2018-04-22T09:00:58.476Z,44.44
2018-04-22T09:01:58.543Z,44.34
2018-04-22T09:02:58.810Z,44.47
2018-04-22T09:03:58.454Z,44.51
2018-04-22T09:04:58.781Z,44.38
2018-04-22T09:05:58.627Z,44.46
2018-04-22T09:06:58.615Z,44.49
2018-04-22T09:07:58.555Z,44.39
2018-04-22T09:08:58.461Z,44.46
2018-04-22T09:09:58.679Z,44.49
2018-04-22T09:10:58.442Z,44.38
2018-04-22T09:11:58.937Z,44.38
2018-04-22T09:12:58.921Z,44.42
2018-04-22T09:13:58.342Z,44.38
2018-04-22T09:14:58.356Z,44.39
2018-04-22T09:15:58.665Z,44.47
2018-04-22T09:16:58.409Z,44.34
2018-04-22T09:17:58.543Z,44.36
2018-04-22T09:18:58.385Z,44.46
2018-04-22T09:19:58.662Z,44.41
2018-04-22T09:20:58.523Z,44.39
2018-04-22T09:21:58.375Z,44.42
2018-04-22T09:22:58.459Z,44.4
2018-04-22T09:23:58.536Z,44.36
2018-04-22T09:24:58.420Z,44.54
2018-04-22T09:25:58.407Z,44.36
2018-04-22T09:26:58.473Z,44.34
2018-04-22T09:27:58.555Z,44.39
2018-04-22T09:28:58.575Z,44.53
2018-04-22T09:29:58.427Z,44.72
2018-04-22T09:30:58.388Z,44.67
2018-04-22T09:31:58.489Z,45.05
2018-04-22T09:32:58.344Z,45.13
2018-04-22T09:33:58.473Z,45.2
2018-04-22T09:34:58.433Z,45.03
2018-04-22T09:35:58.423Z,45.02
2018-04-22T09:36:58.380Z,44.95
2018-04-22T09:37:58.830Z,45.01
2018-04-22T09:38:58.349Z,44.96
2018-04-22T09:39:58.333Z,45.42
2018-04-22T09:40:58.522Z,45.65
2018-04-22T09:41:58.725Z,45.6
2018-04-22T09:42:58.399Z,45.62
2018-04-22T09:43:58.620Z,45.51
2018-04-22T09:44:58.487Z,45.72
2018-04-22T09:45:58.667Z,45.62
2018-04-22T09:46:58.331Z,45.49
2018-04-22T09:47:58.328Z,45.56
2018-04-22T09:48:58.501Z,45.51
2018-04-22T09:49:58.434Z,45.49
2018-04-22T09:50:58.471Z,45.55
2018-04-22T09:51:58.429Z,45.59
2018-04-22T09:52:58.419Z,45.45
2018-04-22T09:53:58.548Z,45.49
2018-04-22T09:54:58.453Z,45.49
2018-04-22T09:55:58.557Z,45.52
2018-04-22T09:56:58.579Z,45.55
2018-04-22T09:57:58.559Z,45.49
2018-04-22T09:58:58.574Z,45.55
2018-04-22T09:59:58.356Z,45.54
2018-04-22T10:00:58.359Z,45.68
2018-04-22T10:01:58.343Z,45.56
2018-04-22T10:02:58.566Z,45.56
2018-04-22T10:03:58.532Z,45.68
2018-04-22T10:04:58.641Z,45.53
2018-04-22T10:05:58.520Z,45.91
2018-04-22T10:06:58.509Z,46.11
2018-04-22T10:07:58.569Z,45.89
2018-04-22T10:08:58.450Z,45.88
2018-04-22T10:09:58.480Z,45.98
2018-04-22T10:10:58.650Z,45.91
2018-04-22T10:11:58.368Z,45.84
2018-04-22T10:12:58.549Z,45.8
2018-04-22T10:13:58.457Z,45.74
2018-04-22T10:14:58.349Z,45.89
2018-04-22T10:15:58.556Z,45.96
2018-04-22T10:16:58.654Z,45.78
2018-04-22T10:17:58.460Z,45.85
2018-04-22T10:18:58.728Z,45.81
2018-04-22T10:19:58.635Z,45.75
2018-04-22T10:20:58.429Z,45.71
2018-04-22T10:21:58.629Z,45.78
2018-04-22T10:22:58.525Z,45.67
2018-04-22T10:23:58.672Z,45.66
2018-04-22T10:24:58.660Z,45.81
2018-04-22T10:25:58.340Z,45.62
2018-04-22T10:26:58.436Z,45.66
2018-04-22T10:27:58.441Z,45.72
2018-04-22T10:28:58.364Z,45.64
2018-04-22T10:29:58.333Z,45.7
2018-04-22T10:30:58.323Z,45.62
2018-04-22T10:31:58.381Z,45.52
2018-04-22T10:32:58.386Z,45.64
2018-04-22T10:33:58.516Z,45.59
2018-04-22T10:34:58.562Z,45.53
2018-04-22T10:35:58.652Z,45.51
2018-04-22T10:36:58.340Z,45.48
2018-04-22T10:37:58.488Z,45.52
2018-04-22T10:38:58.556Z,45.49
2018-04-22T10:39:58.829Z,45.75
2018-04-22T10:40:58.501Z,45.69
2018-04-22T10:41:58.572Z,45.66
2018-04-22T10:42:58.468Z,45.82
2018-04-22T10:43:58.389Z,45.54
2018-04-22T10:44:58.420Z,45.69
2018-04-22T10:45:58.346Z,45.64
2018-04-22T10:46:58.470Z,45.39
2018-04-22T10:47:58.540Z,45.44
2018-04-22T10:48:58.381Z,45.49
2018-04-22T10:49:58.410Z,45.38
2018-04-22T10:50:58.392Z,45.43
2018-04-22T10:51:58.566Z,45.44
2018-04-22T10:52:58.480Z,45.39
2018-04-22T10:53:58.556Z,45.4
2018-04-22T10:54:58.406Z,45.43
2018-04-22T10:55:58.418Z,45.52
2018-04-22T10:56:58.472Z,45.62
2018-04-22T10:57:58.538Z,45.62
2018-04-22T10:58:58.424Z,45.32
2018-04-22T10:59:58.505Z,45.44
2018-04-22T11:00:58.398Z,45.46
2018-04-22T11:01:58.562Z,45.42
2018-04-22T11:02:58.345Z,45.37
2018-04-22T11:03:58.397Z,45.47
2018-04-22T11:04:58.393Z,45.43
2018-04-22T11:05:58.352Z,45.45
2018-04-22T11:06:58.428Z,45.49
2018-04-22T11:07:58.402Z,45.36
2018-04-22T11:08:58.380Z,45.5
2018-04-22T11:09:58.841Z,45.38
2018-04-22T11:10:58.318Z,45.06
2018-04-22T11:11:58.520Z,45.22
2018-04-22T11:12:59.114Z,45.2
2018-04-22T11:13:58.347Z,45.33
2018-04-22T11:14:58.497Z,45.24
2018-04-22T11:15:58.571Z,45.73
2018-04-22T11:16:58.544Z,45.63
2018-04-22T11:17:58.552Z,45.54
2018-04-22T11:18:58.362Z,45.68
2018-04-22T11:19:58.487Z,45.55
2018-04-22T11:20:58.447Z,45.49
2018-04-22T11:21:58.622Z,45.59
2018-04-22T11:22:58.513Z,45.52
2018-04-22T11:23:58.514Z,45.46
2018-04-22T11:24:58.530Z,45.44
2018-04-22T11:25:58.347Z,45.44
2018-04-22T11:26:58.417Z,45.48
2018-04-22T11:27:58.378Z,45.49
2018-04-22T11:28:58.441Z,45.39
2018-04-22T11:29:58.404Z,45.46
2018-04-22T11:30:58.596Z,45.44
2018-04-22T11:31:58.669Z,45.35
2018-04-22T11:32:58.516Z,45.39
2018-04-22T11:33:58.546Z,45.54
2018-04-22T11:34:58.374Z,45.47
2018-04-22T11:35:58.452Z,45.46
2018-04-22T11:36:58.461Z,45.3
2018-04-22T11:37:58.510Z,45.26
2018-04-22T11:38:58.646Z,45.25
2018-04-22T11:39:58.488Z,45.42
2018-04-22T11:40:58.664Z,45.39
2018-04-22T11:41:58.620Z,45.33
2018-04-22T11:42:58.433Z,45.35
2018-04-22T11:43:58.494Z,45.24
2018-04-22T11:44:58.317Z,45.25
2018-04-22T11:45:58.574Z,45.36
2018-04-22T11:46:58.378Z,45.2
2018-04-22T11:47:58.521Z,45.18
2018-04-22T11:48:58.551Z,45.29
2018-04-22T11:49:58.536Z,45.18
2018-04-22T11:50:58.270Z,45.17
2018-04-22T11:51:58.401Z,45.21
2018-04-22T11:52:58.521Z,45.09
2018-04-22T11:53:58.584Z,45.15
2018-04-22T11:54:58.467Z,45.21
2018-04-22T11:55:58.553Z,45.1
2018-04-22T11:56:58.475Z,45.1
2018-04-22T11:57:58.446Z,45.2
2018-04-22T11:58:58.445Z,45.05
2018-04-22T11:59:58.655Z,45.03
2018-04-22T12:00:58.356Z,45.11
2018-04-22T12:01:58.364Z,45.06
2018-04-22T12:02:58.352Z,44.99
2018-04-22T12:03:58.449Z,45.17
2018-04-22T12:04:58.461Z,45.04
2018-04-22T12:05:58.457Z,45.04
2018-04-22T12:06:58.417Z,45.12
2018-04-22T12:07:58.464Z,45.08
2018-04-22T12:08:58.558Z,45.08
2018-04-22T12:09:58.536Z,45.11
2018-04-22T12:10:58.529Z,45.05
2018-04-22T12:11:58.478Z,44.95
2018-04-22T12:12:58.527Z,45.01
2018-04-22T12:13:58.393Z,45.01
2018-04-22T12:14:58.455Z,44.96
2018-04-22T12:15:58.317Z,44.97
2018-04-22T12:16:58.417Z,44.98
2018-04-22T12:17:58.474Z,45.04
2018-04-22T12:18:58.361Z,45.13
2018-04-22T12:19:58.380Z,45.44
2018-04-22T12:20:58.585Z,45.22
2018-04-22T12:21:58.668Z,45.54
2018-04-22T12:22:58.331Z,45.64
2018-04-22T12:23:58.396Z,45.59
2018-04-22T12:24:58.315Z,45.79
2018-04-22T12:25:58.499Z,45.67
2018-04-22T12:26:58.442Z,45.63
2018-04-22T12:27:58.491Z,45.7
2018-04-22T12:28:58.501Z,45.66
2018-04-22T12:29:58.518Z,45.68
2018-04-22T12:30:58.708Z,45.75
2018-04-22T12:31:58.466Z,45.7
2018-04-22T12:32:58.423Z,45.67
2018-04-22T12:33:58.359Z,45.86
2018-04-22T12:34:58.466Z,45.62
2018-04-22T12:35:58.609Z,45.58
2018-04-22T12:36:58.549Z,46.17
2018-04-22T12:37:58.426Z,46.28
2018-04-22T12:38:58.374Z,46.09
2018-04-22T12:39:58.569Z,46.31
2018-04-22T12:40:58.352Z,46.61
2018-04-22T12:41:58.422Z,46.27
2018-04-22T12:42:58.667Z,46.29
2018-04-22T12:43:58.699Z,46.05
2018-04-22T12:44:58.516Z,46.11
2018-04-22T12:45:58.413Z,45.93
2018-04-22T12:46:58.547Z,46.29
2018-04-22T12:47:58.627Z,46.51
2018-04-22T12:48:58.560Z,46.63
2018-04-22T12:49:58.494Z,46.36
2018-04-22T12:50:58.326Z,46.1
2018-04-22T12:51:58.466Z,46.18
2018-04-22T12:52:58.364Z,46.52
2018-04-22T12:53:58.533Z,46.59
2018-04-22T12:54:58.389Z,46.21
2018-04-22T12:55:58.412Z,46.04